Time;durP1;ratioP1;P1;durP2;ratioP2;P2;SDS_P1;SDS_P2;PMS_P1;PMS_P2;Temp;Humidity;BMP_temperature;BMP_pressure;BME280_temperature;BME280_humidity;BME280_pressure;Samples;Min_cycle;Max_cycle;Signal;HPM_P1;HPM_P2
2023/01/19 00:01:36;;;;;;;18.65;0.98;;;;;;;3.57;100.00;99967.56;5042839;28;20287;-45
2023/01/19 00:04:01;;;;;;;13.98;0.93;;;;;;;3.50;100.00;99966.50;5050252;28;20079;-45
2023/01/19 00:06:27;;;;;;;16.73;1.08;;;;;;;3.40;100.00;99974.63;5046902;28;20500;-44
2023/01/19 00:08:52;;;;;;;9.43;1.40;;;;;;;3.37;100.00;99974.94;5048613;28;20436;-43
2023/01/19 00:11:18;;;;;;;15.65;1.42;;;;;;;3.34;100.00;99974.41;5050084;28;20147;-44
2023/01/19 00:13:49;;;;;;;17.10;1.20;;;;;;;3.37;100.00;99979.41;5043375;28;20435;-43
2023/01/19 00:16:18;;;;;;;16.52;1.27;;;;;;;3.41;100.00;99980.75;5045864;28;20143;-42
2023/01/19 00:18:44;;;;;;;9.82;0.77;;;;;;;3.44;100.00;99985.78;5045178;28;20063;-41
2023/01/19 00:21:10;;;;;;;23.23;1.42;;;;;;;3.42;100.00;99971.78;5048805;28;20029;-43
2023/01/19 00:23:36;;;;;;;6.47;0.68;;;;;;;3.41;100.00;99986.09;5042841;28;20087;-43
2023/01/19 00:26:01;;;;;;;6.63;0.88;;;;;;;3.38;100.00;99994.38;5038270;28;20037;-44
2023/01/19 00:28:26;;;;;;;14.90;1.27;;;;;;;3.33;100.00;99997.50;5045037;28;20021;-44
2023/01/19 00:30:52;;;;;;;13.60;1.15;;;;;;;3.29;100.00;99999.66;5041253;28;20063;-44
2023/01/19 00:33:17;;;;;;;8.88;1.20;;;;;;;3.27;100.00;99998.13;5047697;28;20472;-43
2023/01/19 00:35:42;;;;;;;15.85;1.38;;;;;;;3.23;100.00;99997.59;5039070;28;20571;-43
2023/01/19 00:38:09;;;;;;;13.75;1.40;;;;;;;3.25;100.00;99992.97;5037601;28;20462;-44
2023/01/19 00:40:34;;;;;;;28.33;2.05;;;;;;;3.27;100.00;100009.59;5052772;28;20025;-45
2023/01/19 00:43:00;;;;;;;22.73;1.10;;;;;;;3.26;100.00;100002.59;5037331;28;20429;-45
2023/01/19 00:45:25;;;;;;;26.38;1.40;;;;;;;3.26;100.00;100015.88;5036473;28;20025;-44
2023/01/19 00:47:55;;;;;;;21.35;1.90;;;;;;;3.28;100.00;100016.56;5046475;28;20033;-44
2023/01/19 00:50:22;;;;;;;24.10;1.75;;;;;;;3.30;100.00;100027.91;5048218;28;20477;-43
2023/01/19 00:52:47;;;;;;;26.33;1.73;;;;;;;3.28;100.00;100024.56;5032806;28;20120;-43
2023/01/19 00:55:14;;;;;;;12.35;1.38;;;;;;;3.21;100.00;100028.84;5032845;28;20152;-44
2023/01/19 00:57:40;;;;;;;12.88;0.95;;;;;;;3.11;100.00;100017.47;5039445;28;20029;-44
2023/01/19 01:00:09;;;;;;;13.30;1.20;;;;;;;3.05;100.00;100016.25;5050903;28;20035;-42
2023/01/19 01:02:35;;;;;;;14.40;1.00;;;;;;;2.99;100.00;100026.66;5049462;28;20345;-43
2023/01/19 01:05:01;;;;;;;12.30;0.90;;;;;;;2.95;100.00;100017.31;5050109;28;20120;-43
2023/01/19 01:07:28;;;;;;;16.15;0.80;;;;;;;2.94;100.00;100026.28;5033748;28;20135;-41
2023/01/19 01:09:53;;;;;;;10.35;1.00;;;;;;;2.96;100.00;100037.59;5032746;28;20034;-41
2023/01/19 01:12:18;;;;;;;17.23;1.25;;;;;;;2.98;100.00;100059.56;5048723;28;20241;-41
2023/01/19 01:14:44;;;;;;;9.25;1.25;;;;;;;2.99;100.00;100063.88;5032756;28;20445;-42
2023/01/19 01:17:10;;;;;;;14.05;0.85;;;;;;;2.97;100.00;100068.50;5036707;28;20484;-44
2023/01/19 01:19:41;;;;;;;11.35;0.73;;;;;;;2.85;100.00;100058.09;5044472;28;20023;-44
2023/01/19 01:22:07;;;;;;;5.65;0.80;;;;;;;2.82;100.00;100071.69;5032777;28;20033;-44
2023/01/19 01:24:33;;;;;;;6.93;0.70;;;;;;;2.73;100.00;100067.25;5032206;28;20765;-44
2023/01/19 01:26:58;;;;;;;11.48;0.80;;;;;;;2.70;100.00;100067.56;5035418;28;20120;-43
2023/01/19 01:29:23;;;;;;;11.23;0.80;;;;;;;2.71;100.00;100058.59;5031356;28;20503;-42
2023/01/19 01:31:49;;;;;;;11.30;1.25;;;;;;;2.74;100.00;100062.78;5045459;28;20029;-42
2023/01/19 01:34:15;;;;;;;23.40;1.45;;;;;;;2.77;100.00;100073.97;5041202;28;20123;-43
2023/01/19 01:36:40;;;;;;;6.20;0.68;;;;;;;2.81;100.00;100067.34;5040329;28;20032;-42
2023/01/19 01:39:06;;;;;;;16.83;1.15;;;;;;;2.85;100.00;100074.03;5035790;28;20034;-41
2023/01/19 01:41:31;;;;;;;14.15;1.23;;;;;;;2.88;100.00;100085.38;5046608;28;20230;-41
2023/01/19 01:43:58;;;;;;;15.02;1.27;;;;;;;2.88;100.00;100080.88;5042426;28;20033;-41
2023/01/19 01:46:25;;;;;;;12.88;1.25;;;;;;;2.91;100.00;100085.06;5037394;28;20111;-40
2023/01/19 01:49:02;;;;;;;10.88;1.20;;;;;;;2.97;100.00;100084.44;5039600;28;20028;-41
2023/01/19 01:51:38;;;;;;;11.80;1.10;;;;;;;3.00;100.00;100084.13;5047248;28;20341;-43
2023/01/19 01:54:08;;;;;;;17.17;1.63;;;;;;;3.00;100.00;100092.09;5047084;28;20033;-41
2023/01/19 01:56:36;;;;;;;12.10;1.42;;;;;;;2.98;100.00;100089.63;5048534;28;20468;-42
2023/01/19 01:59:05;;;;;;;12.20;1.10;;;;;;;3.00;100.00;100098.28;5044072;28;20052;-42
2023/01/19 02:04:14;;;;;;;20.90;2.00;;;;;;;2.97;100.00;100124.31;5031977;28;20098;-44
2023/01/19 02:14:54;;;;;;;7.97;0.68;;;;;;;2.53;100.00;100130.31;5035187;28;20044;-44
2023/01/19 02:17:20;;;;;;;8.05;0.82;;;;;;;2.46;100.00;100141.66;5046631;28;20029;-44
2023/01/19 02:19:45;;;;;;;6.13;0.40;;;;;;;2.44;100.00;100143.63;5045608;28;20154;-44
2023/01/19 02:22:17;;;;;;;6.47;0.70;;;;;;;2.36;100.00;100129.25;5048045;28;20068;-44
2023/01/19 02:24:42;;;;;;;3.65;0.63;;;;;;;2.33;100.00;100131.38;5039674;28;20464;-43
2023/01/19 02:27:08;;;;;;;10.52;0.50;;;;;;;2.34;100.00;100125.94;5034812;28;20110;-43
2023/01/19 02:29:34;;;;;;;15.07;1.05;;;;;;;2.36;100.00;100126.59;5041741;28;20025;-42
2023/01/19 02:32:01;;;;;;;6.70;0.60;;;;;;;2.37;100.00;100128.28;5039281;28;20233;-42
2023/01/19 02:34:27;;;;;;;4.22;0.50;;;;;;;2.36;100.00;100129.25;5037793;28;20028;-43
2023/01/19 02:36:56;;;;;;;8.60;0.60;;;;;;;2.32;100.00;100158.94;5030645;28;20022;-45
2023/01/19 02:39:26;;;;;;;9.23;0.45;;;;;;;2.19;100.00;100169.88;5038455;28;20056;-45
2023/01/19 02:41:55;;;;;;;12.60;0.90;;;;;;;2.03;100.00;100148.38;5044193;28;20440;-44
2023/01/19 02:44:22;;;;;;;6.55;0.85;;;;;;;1.86;100.00;100131.38;5047539;28;20033;-45
2023/01/19 02:46:47;;;;;;;9.25;0.77;;;;;;;1.83;100.00;100119.25;5038388;28;20098;-44
2023/01/19 02:49:12;;;;;;;10.57;1.60;;;;;;;1.78;100.00;100120.66;5030517;28;20029;-44
2023/01/19 02:51:38;;;;;;;12.63;1.08;;;;;;;1.76;100.00;100131.41;5035203;28;20087;-44
2023/01/19 02:54:03;;;;;;;15.68;1.15;;;;;;;1.79;100.00;100131.13;5037919;28;20025;-43
2023/01/19 02:56:38;;;;;;;17.50;1.33;;;;;;;1.82;100.00;100120.25;5034988;28;20029;-43
2023/01/19 02:59:29;;;;;;;6.55;1.48;;;;;;;1.87;100.00;100111.81;5035025;28;20040;-42
2023/01/19 03:02:33;;;;;;;17.35;1.40;;;;;;;1.97;100.00;100105.53;5039986;28;20041;-43
2023/01/19 03:05:18;;;;;;;14.43;1.50;;;;;;;2.10;100.00;100109.66;5008564;28;20401;-42
2023/01/19 03:07:49;;;;;;;20.77;1.80;;;;;;;2.24;100.00;100118.97;5020969;28;20088;-42
2023/01/19 03:10:42;;;;;;;35.90;2.53;;;;;;;2.38;100.00;100124.66;5035938;28;20043;-42
2023/01/19 03:13:16;;;;;;;30.33;2.65;;;;;;;2.54;100.00;100120.53;5042452;28;20392;-41
2023/01/19 03:15:46;;;;;;;29.88;3.47;;;;;;;2.68;100.00;100127.16;5015052;28;20043;-41
2023/01/19 03:18:13;;;;;;;38.92;2.83;;;;;;;2.79;100.00;100130.47;5034905;28;20052;-40
2023/01/19 03:20:39;;;;;;;38.47;3.85;;;;;;;2.92;100.00;100126.59;5038462;28;20120;-41
2023/01/19 03:23:09;;;;;;;38.65;3.58;;;;;;;3.02;100.00;100130.84;5036391;28;20124;-40
2023/01/19 03:25:36;;;;;;;35.33;3.25;;;;;;;3.15;100.00;100134.97;5036992;28;20108;-40
2023/01/19 03:28:02;;;;;;;29.40;2.58;;;;;;;3.24;100.00;100144.72;5037707;28;20748;-40
2023/01/19 03:30:31;;;;;;;35.95;3.45;;;;;;;3.32;100.00;100147.44;5040377;28;20527;-40
2023/01/19 03:33:06;;;;;;;34.95;3.40;;;;;;;3.41;100.00;100157.16;5041562;28;20029;-40
2023/01/19 03:35:34;;;;;;;37.72;3.65;;;;;;;3.53;100.00;100163.09;5045930;28;20503;-39
2023/01/19 03:38:02;;;;;;;25.00;2.35;;;;;;;3.59;100.00;100153.66;5030845;28;20061;-40
2023/01/19 03:40:29;;;;;;;34.83;2.53;;;;;;;3.58;100.00;100168.78;5028727;28;20025;-40
2023/01/19 03:42:55;;;;;;;19.73;1.52;;;;;;;3.55;100.00;100158.44;5046460;28;20112;-41
2023/01/19 03:45:21;;;;;;;23.52;1.70;;;;;;;3.59;100.00;100161.63;5046402;28;20390;-40
2023/01/19 03:47:47;;;;;;;19.85;2.13;;;;;;;3.57;100.00;100145.81;5035416;28;20083;-41
2023/01/19 03:50:19;;;;;;;26.58;1.83;;;;;;;3.68;100.00;100158.03;5035107;28;20424;-40
2023/01/19 03:52:45;;;;;;;26.25;2.35;;;;;;;3.71;100.00;100150.59;5028105;28;20026;-40
2023/01/19 03:55:11;;;;;;;21.02;1.48;;;;;;;3.68;100.00;100145.56;5048752;28;20028;-40
2023/01/19 03:57:36;;;;;;;26.73;2.35;;;;;;;3.70;100.00;100140.94;5030236;28;20496;-40
2023/01/19 04:00:03;;;;;;;23.38;2.10;;;;;;;3.70;100.00;100135.59;5037781;28;20116;-40
2023/01/19 04:02:28;;;;;;;19.38;1.80;;;;;;;3.72;100.00;100120.31;5030018;28;20083;-40
2023/01/19 04:04:53;;;;;;;20.75;2.38;;;;;;;3.74;100.00;100122.84;5030043;28;20021;-40
2023/01/19 04:07:19;;;;;;;32.10;2.92;;;;;;;3.73;100.00;100121.97;5047041;28;20022;-40
2023/01/19 04:09:44;;;;;;;29.00;2.78;;;;;;;3.74;100.00;100126.34;5041622;28;20481;-40
2023/01/19 04:12:09;;;;;;;26.73;2.72;;;;;;;3.76;100.00;100133.31;5044424;28;20719;-40
2023/01/19 04:14:35;;;;;;;19.33;2.03;;;;;;;3.79;100.00;100133.00;5041886;28;20461;-39
2023/01/19 04:17:00;;;;;;;30.27;2.63;;;;;;;3.84;100.00;100136.03;5047210;28;20052;-40
2023/01/19 04:19:25;;;;;;;31.60;2.42;;;;;;;3.88;100.00;100140.06;5045195;28;20025;-40
2023/01/19 04:21:51;;;;;;;21.65;1.98;;;;;;;3.94;100.00;100131.44;5033133;28;20385;-40
2023/01/19 04:24:17;;;;;;;31.27;3.17;;;;;;;3.96;100.00;100132.97;5042471;28;20461;-40
2023/01/19 04:26:42;;;;;;;24.67;2.10;;;;;;;4.00;100.00;100128.16;5032684;28;20480;-40
2023/01/19 04:29:08;;;;;;;23.92;2.88;;;;;;;4.00;100.00;100136.13;5035645;28;20037;-40
2023/01/19 04:31:34;;;;;;;29.45;2.20;;;;;;;3.99;100.00;100129.16;5047187;28;20025;-40
2023/01/19 04:34:00;;;;;;;20.27;1.85;;;;;;;3.97;100.00;100128.47;5049604;28;20029;-39
2023/01/19 04:36:26;;;;;;;21.80;2.10;;;;;;;3.93;100.00;100124.47;5040286;28;20053;-40
2023/01/19 04:38:51;;;;;;;30.73;2.83;;;;;;;3.96;100.00;100121.47;5040194;28;20036;-41
2023/01/19 04:41:17;;;;;;;30.77;2.63;;;;;;;3.99;100.00;100128.31;5035480;28;20491;-40
2023/01/19 04:43:42;;;;;;;30.75;2.30;;;;;;;3.99;100.00;100125.66;5041138;28;20171;-40
2023/01/19 04:46:08;;;;;;;25.80;2.25;;;;;;;4.00;100.00;100132.66;5034810;28;20460;-40
2023/01/19 04:48:33;;;;;;;16.15;2.13;;;;;;;4.01;100.00;100126.34;5048450;28;20199;-39
2023/01/19 04:50:58;;;;;;;25.58;2.58;;;;;;;4.03;100.00;100140.31;5040304;28;20037;-40
2023/01/19 04:53:24;;;;;;;25.52;2.60;;;;;;;4.01;100.00;100145.81;5051818;28;20089;-40
2023/01/19 04:55:55;;;;;;;18.67;2.05;;;;;;;4.03;100.00;100141.16;5042174;28;20025;-40
2023/01/19 04:58:21;;;;;;;33.03;3.13;;;;;;;4.04;100.00;100134.84;5032873;28;20036;-41
2023/01/19 05:00:46;;;;;;;22.77;2.58;;;;;;;4.10;100.00;100142.19;5045898;28;20036;-40
2023/01/19 05:03:12;;;;;;;32.85;2.28;;;;;;;4.11;100.00;100141.22;5052033;28;20106;-40
2023/01/19 05:05:37;;;;;;;20.88;2.35;;;;;;;4.10;100.00;100136.88;5039261;28;20033;-40
2023/01/19 05:08:03;;;;;;;28.90;3.05;;;;;;;4.11;100.00;100133.22;5052225;28;20546;-40
2023/01/19 05:10:28;;;;;;;17.00;2.58;;;;;;;4.13;100.00;100125.94;5043809;28;20033;-40
2023/01/19 05:12:54;;;;;;;25.23;1.90;;;;;;;4.11;100.00;100127.91;5037964;28;20299;-39
2023/01/19 05:15:19;;;;;;;19.00;1.65;;;;;;;4.06;100.00;100124.88;5050438;28;20260;-40
2023/01/19 05:17:45;;;;;;;10.68;1.23;;;;;;;4.05;100.00;100133.00;5050608;28;20021;-41
2023/01/19 05:20:11;;;;;;;28.50;2.30;;;;;;;4.00;100.00;100140.63;5040653;28;20285;-40
2023/01/19 05:22:38;;;;;;;21.17;2.78;;;;;;;3.97;100.00;100131.13;5041269;28;20041;-40
2023/01/19 05:25:03;;;;;;;29.60;2.47;;;;;;;4.01;100.00;100132.50;5045905;28;20029;-40
2023/01/19 05:27:29;;;;;;;26.20;2.60;;;;;;;3.99;100.00;100145.13;5039673;28;20034;-40
2023/01/19 05:29:54;;;;;;;40.42;2.78;;;;;;;3.97;100.00;100147.94;5036290;28;20031;-41
2023/01/19 05:32:19;;;;;;;24.23;2.75;;;;;;;3.99;100.00;100150.44;5047045;28;20496;-40
2023/01/19 05:34:45;;;;;;;41.28;2.80;;;;;;;3.97;100.00;100147.09;5038229;28;20400;-40
2023/01/19 05:37:10;;;;;;;23.48;3.40;;;;;;;4.00;100.00;100146.78;5033650;28;20043;-40
2023/01/19 05:39:36;;;;;;;31.60;2.67;;;;;;;3.99;100.00;100147.78;5032666;28;20433;-40
2023/01/19 05:42:01;;;;;;;28.52;2.95;;;;;;;3.99;100.00;100154.94;5038173;28;20033;-41
2023/01/19 05:44:26;;;;;;;31.15;2.28;;;;;;;3.98;100.00;100151.47;5031507;28;20021;-40
2023/01/19 05:46:52;;;;;;;20.63;2.25;;;;;;;3.97;100.00;100160.41;5040319;28;20439;-40
2023/01/19 05:49:17;;;;;;;30.23;2.72;;;;;;;3.97;100.00;100161.25;5046884;28;20426;-40
2023/01/19 05:51:44;;;;;;;19.05;2.28;;;;;;;4.00;100.00;100160.09;5031863;28;20029;-41
2023/01/19 05:54:11;;;;;;;18.67;2.10;;;;;;;4.03;100.00;100172.25;5049836;28;20033;-40
2023/01/19 05:56:38;;;;;;;49.22;3.83;;;;;;;4.07;100.00;100173.63;5049475;28;20025;-40
2023/01/19 05:59:03;;;;;;;24.45;2.45;;;;;;;4.04;100.00;100180.09;5037823;28;20252;-40
2023/01/19 06:01:29;;;;;;;15.70;2.03;;;;;;;3.99;100.00;100187.72;5045117;28;20036;-40
2023/01/19 06:03:54;;;;;;;20.38;2.60;;;;;;;3.93;100.00;100173.22;5038117;28;20437;-41
2023/01/19 06:06:19;;;;;;;31.73;2.40;;;;;;;3.92;100.00;100192.84;5030963;28;20032;-40
2023/01/19 06:08:45;;;;;;;17.42;1.90;;;;;;;3.87;100.00;100205.78;5034360;28;20084;-40
2023/01/19 06:11:10;;;;;;;28.13;2.42;;;;;;;3.87;100.00;100211.13;5040735;28;20114;-41
2023/01/19 06:13:38;;;;;;;21.30;2.13;;;;;;;3.84;100.00;100211.41;5028001;28;20017;-40
2023/01/19 06:16:03;;;;;;;26.90;3.30;;;;;;;3.84;100.00;100207.91;5038552;28;20496;-41
2023/01/19 06:18:29;;;;;;;35.40;2.97;;;;;;;3.81;100.00;100216.19;5036927;28;20048;-40
2023/01/19 06:20:57;;;;;;;22.48;2.50;;;;;;;3.79;100.00;100218.16;5049486;28;20433;-40
2023/01/19 06:23:28;;;;;;;27.70;2.72;;;;;;;3.77;100.00;100221.00;5034336;28;20056;-41
2023/01/19 06:25:53;;;;;;;19.08;2.00;;;;;;;3.77;100.00;100220.19;5031142;28;20037;-41
2023/01/19 06:28:18;;;;;;;22.33;2.60;;;;;;;3.79;100.00;100223.50;5037696;28;20106;-43
2023/01/19 06:30:48;;;;;;;31.15;3.55;;;;;;;3.83;100.00;100227.53;5030582;28;20333;-41
2023/01/19 06:33:14;;;;;;;30.90;2.40;;;;;;;3.81;100.00;100229.50;5043409;28;20405;-41
2023/01/19 06:35:44;;;;;;;21.70;2.50;;;;;;;3.86;100.00;100240.53;5041433;28;20091;-40
2023/01/19 06:38:12;;;;;;;25.05;2.00;;;;;;;3.90;100.00;100249.91;5041589;28;20528;-42
2023/01/19 06:40:37;;;;;;;25.83;2.83;;;;;;;3.87;100.00;100252.84;5050840;28;20107;-41
2023/01/19 06:43:03;;;;;;;26.95;2.60;;;;;;;3.87;100.00;100250.19;5049115;28;20319;-42
2023/01/19 06:45:28;;;;;;;30.40;2.60;;;;;;;3.86;100.00;100252.00;5030444;28;20025;-41
2023/01/19 06:47:53;;;;;;;30.15;2.75;;;;;;;3.92;100.00;100250.56;5032079;28;20025;-41
2023/01/19 06:50:19;;;;;;;32.15;2.33;;;;;;;3.91;100.00;100249.72;5050483;28;20096;-41
2023/01/19 06:52:44;;;;;;;19.95;2.08;;;;;;;3.94;100.00;100248.59;5042566;28;20025;-41
2023/01/19 06:55:10;;;;;;;24.77;2.40;;;;;;;3.97;100.00;100253.59;5030784;28;20167;-40
2023/01/19 06:57:37;;;;;;;22.50;2.28;;;;;;;3.99;100.00;100259.63;5034699;28;20543;-41
2023/01/19 07:00:07;;;;;;;23.25;1.95;;;;;;;4.00;100.00;100253.28;5037015;28;20033;-41
2023/01/19 07:02:34;;;;;;;24.17;2.45;;;;;;;4.01;100.00;100256.81;5041244;28;20059;-41
2023/01/19 07:04:59;;;;;;;15.25;1.98;;;;;;;3.97;100.00;100250.94;5032772;28;20036;-39
2023/01/19 07:07:25;;;;;;;17.33;1.70;;;;;;;3.95;100.00;100260.94;5033919;28;20033;-41
2023/01/19 07:09:50;;;;;;;15.65;1.52;;;;;;;3.92;100.00;100259.41;5045762;28;20025;-42
2023/01/19 07:12:16;;;;;;;23.65;1.58;;;;;;;3.97;100.00;100258.94;5030619;28;20091;-39
2023/01/19 07:14:41;;;;;;;15.85;1.92;;;;;;;3.91;100.00;100254.22;5030420;28;20018;-40
2023/01/19 07:17:07;;;;;;;23.90;2.13;;;;;;;3.95;100.00;100263.59;5043032;28;20053;-41
2023/01/19 07:19:34;;;;;;;14.30;1.98;;;;;;;3.95;100.00;100267.09;5032678;28;20013;-40
2023/01/19 07:21:59;;;;;;;19.83;1.80;;;;;;;3.95;100.00;100271.56;5049774;28;20353;-41
2023/01/19 07:24:25;;;;;;;18.05;1.70;;;;;;;3.92;100.00;100275.38;5048758;28;20029;-41
2023/01/19 07:26:50;;;;;;;15.70;1.95;;;;;;;3.99;100.00;100280.91;5049549;28;20029;-40
2023/01/19 07:29:16;;;;;;;22.95;2.92;;;;;;;4.02;100.00;100283.28;5049731;28;20029;-40
2023/01/19 07:31:41;;;;;;;18.90;1.48;;;;;;;4.06;100.00;100279.31;5049499;28;20476;-40
2023/01/19 07:34:06;;;;;;;29.83;2.60;;;;;;;4.08;100.00;100295.13;5050105;28;20524;-41
2023/01/19 07:36:31;;;;;;;28.08;3.05;;;;;;;4.09;100.00;100300.31;5050147;28;20527;-41
2023/01/19 07:38:57;;;;;;;16.65;3.03;;;;;;;4.06;100.00;100300.63;5049643;28;20487;-41
2023/01/19 07:41:22;;;;;;;18.33;2.42;;;;;;;3.99;100.00;100304.03;5049895;28;20408;-41
2023/01/19 07:43:50;;;;;;;21.42;2.55;;;;;;;3.99;100.00;100318.19;5049529;28;20511;-41
2023/01/19 07:46:15;;;;;;;16.85;2.50;;;;;;;3.96;100.00;100319.34;5031097;28;20037;-41
2023/01/19 07:48:43;;;;;;;17.60;2.20;;;;;;;3.95;100.00;100320.34;5049720;28;20083;-41
2023/01/19 07:51:10;;;;;;;27.43;3.50;;;;;;;3.99;100.00;100314.69;5050111;28;20036;-41
2023/01/19 07:53:36;;;;;;;29.48;2.47;;;;;;;3.95;100.00;100335.47;5049967;28;20079;-41
2023/01/19 07:56:02;;;;;;;21.63;2.63;;;;;;;3.96;100.00;100329.97;5048405;28;20025;-41
2023/01/19 07:58:27;;;;;;;22.58;2.20;;;;;;;3.98;100.00;100332.50;5050002;28;20100;-40
2023/01/19 08:00:52;;;;;;;21.38;1.80;;;;;;;3.96;100.00;100332.63;5048276;28;20021;-40
2023/01/19 08:03:18;;;;;;;26.90;1.92;;;;;;;3.88;100.00;100334.41;5049590;28;20029;-40
2023/01/19 08:05:44;;;;;;;18.98;3.92;;;;;;;3.86;100.00;100336.38;5049871;28;20553;-39
2023/01/19 08:08:11;;;;;;;31.02;2.10;;;;;;;3.80;100.00;100339.63;5050713;28;20158;-39
2023/01/19 08:10:36;;;;;;;28.83;2.08;;;;;;;3.74;100.00;100347.25;5052584;28;20033;-40
2023/01/19 08:13:02;;;;;;;22.23;2.00;;;;;;;3.69;100.00;100344.19;5053388;28;20425;-42
2023/01/19 08:15:27;;;;;;;16.27;1.95;;;;;;;3.65;100.00;100350.78;5053325;28;20763;-40
2023/01/19 08:17:57;;;;;;;20.73;2.25;;;;;;;3.63;100.00;100358.06;5053852;28;20024;-40
2023/01/19 08:20:23;;;;;;;20.42;1.52;;;;;;;3.67;100.00;100354.13;5053824;28;20025;-40
2023/01/19 08:22:48;;;;;;;15.77;1.80;;;;;;;3.67;100.00;100356.78;5053415;28;20040;-40
2023/01/19 08:25:14;;;;;;;12.88;1.55;;;;;;;3.71;100.00;100363.50;5053090;28;20021;-42
2023/01/19 08:27:39;;;;;;;13.93;1.60;;;;;;;3.91;100.00;100360.72;5053263;28;20036;-42
2023/01/19 08:30:05;;;;;;;21.67;1.92;;;;;;;4.45;100.00;100358.91;5053333;28;20499;-40
2023/01/19 08:32:31;;;;;;;11.70;1.77;;;;;;;4.97;100.00;100361.56;5053293;28;20556;-40
2023/01/19 08:34:56;;;;;;;13.70;1.50;;;;;;;5.64;100.00;100368.91;5053582;28;20045;-40
2023/01/19 08:37:23;;;;;;;14.43;2.17;;;;;;;5.87;100.00;100366.47;5053012;28;20027;-40
2023/01/19 08:39:49;;;;;;;13.45;1.73;;;;;;;6.37;100.00;100374.44;5053230;28;20108;-40
2023/01/19 08:42:14;;;;;;;16.30;2.70;;;;;;;6.91;100.00;100368.56;5053126;28;20108;-40
2023/01/19 08:44:39;;;;;;;23.77;2.40;;;;;;;7.29;100.00;100379.50;5052716;28;20536;-41
2023/01/19 08:47:05;;;;;;;10.35;1.85;;;;;;;7.72;100.00;100368.50;5052923;28;20029;-41
2023/01/19 08:49:30;;;;;;;15.32;1.73;;;;;;;8.41;100.00;100382.00;5051298;28;20032;-40
2023/01/19 08:51:55;;;;;;;14.63;1.55;;;;;;;8.78;94.45;100370.44;5053058;28;20017;-41
2023/01/19 08:54:22;;;;;;;17.77;2.22;;;;;;;8.51;88.70;100382.59;5052943;28;20036;-41
2023/01/19 08:56:47;;;;;;;16.05;1.45;;;;;;;9.00;88.68;100377.63;5050995;28;20047;-40
2023/01/19 08:59:12;;;;;;;19.02;2.38;;;;;;;9.04;85.33;100375.41;5052939;28;20480;-40
2023/01/19 09:01:38;;;;;;;11.20;1.55;;;;;;;9.30;83.41;100388.38;5053329;28;20108;-40
2023/01/19 09:04:04;;;;;;;14.43;2.42;;;;;;;9.54;82.65;100379.19;5052811;28;20063;-41
2023/01/19 09:06:29;;;;;;;17.73;1.67;;;;;;;10.04;77.99;100377.53;5052859;28;20032;-39
2023/01/19 09:08:54;;;;;;;17.60;2.20;;;;;;;10.28;76.13;100389.81;5052474;28;20025;-40
2023/01/19 09:11:20;;;;;;;18.17;2.28;;;;;;;10.08;75.00;100383.34;5052511;28;20075;-40
2023/01/19 09:13:45;;;;;;;10.57;1.30;;;;;;;10.50;72.31;100392.50;5052530;28;20025;-41
2023/01/19 09:16:12;;;;;;;11.10;2.40;;;;;;;10.21;69.70;100396.09;5052303;28;20047;-41
2023/01/19 09:18:37;;;;;;;15.77;1.95;;;;;;;10.36;70.18;100390.72;5052713;28;20373;-41
2023/01/19 09:21:03;;;;;;;14.13;1.98;;;;;;;9.90;68.38;100394.53;5051614;28;20135;-39
2023/01/19 09:23:29;;;;;;;11.88;1.73;;;;;;;10.20;66.46;100394.47;5052505;28;20087;-41
2023/01/19 09:26:00;;;;;;;12.23;1.63;;;;;;;9.53;67.85;100398.19;5052465;28;20033;-41
2023/01/19 09:28:25;;;;;;;7.22;1.45;;;;;;;9.27;65.89;100396.81;5051180;28;20021;-41
2023/01/19 09:30:51;;;;;;;9.35;1.92;;;;;;;9.19;67.48;100405.78;5052370;28;20396;-41
2023/01/19 09:33:18;;;;;;;21.55;2.20;;;;;;;9.19;67.30;100407.63;5052307;28;20025;-41
2023/01/19 09:35:44;;;;;;;14.45;1.58;;;;;;;9.22;64.71;100409.94;5052063;28;20462;-40
2023/01/19 09:38:10;;;;;;;15.68;1.40;;;;;;;9.15;64.92;100409.00;5052290;28;20029;-41
2023/01/19 09:40:44;;;;;;;5.38;0.90;;;;;;;8.97;66.08;100412.84;5052378;28;20091;-41
2023/01/19 09:43:54;;;;;;;20.85;2.10;;;;;;;8.88;70.69;100413.97;5050924;28;20049;-41
2023/01/19 09:46:28;;;;;;;11.82;2.15;;;;;;;9.34;68.60;100408.47;5050224;28;20036;-40
2023/01/19 09:48:56;;;;;;;15.88;2.03;;;;;;;9.42;68.51;100411.03;5050861;28;20037;-41
2023/01/19 09:51:31;;;;;;;;;;;;;;;9.68;65.93;100420.50;5050968;28;20029;-41
2023/01/19 09:54:15;;;;;;;12.00;1.42;;;;;;;9.16;66.68;100421.41;5052165;28;20363;-40
2023/01/19 09:56:45;;;;;;;10.38;1.42;;;;;;;8.77;69.16;100436.69;5051998;28;20380;-41
2023/01/19 09:59:18;;;;;;;8.80;1.92;;;;;;;9.06;69.58;100428.88;5050547;28;20108;-41
2023/01/19 10:02:05;;;;;;;13.25;1.75;;;;;;;9.26;71.18;100434.56;5051794;28;20254;-41
2023/01/19 10:04:59;;;;;;;6.10;1.38;;;;;;;9.56;66.47;100436.28;5051932;28;20036;-41
2023/01/19 10:07:38;;;;;;;9.30;1.80;;;;;;;9.66;65.25;100435.97;5051664;28;20029;-41
2023/01/19 10:10:06;;;;;;;7.15;1.23;;;;;;;9.28;65.65;100446.81;5051623;28;20021;-40
2023/01/19 10:12:46;;;;;;;27.65;3.08;;;;;;;8.89;66.63;100442.44;5049989;28;20040;-41
2023/01/19 10:15:14;;;;;;;17.63;1.88;;;;;;;9.06;67.15;100453.91;5051128;28;20107;-39
2023/01/19 10:17:46;;;;;;;15.68;2.08;;;;;;;8.62;68.57;100457.25;5051490;28;20020;-40
2023/01/19 10:20:34;;;;;;;9.25;1.40;;;;;;;8.04;68.29;100454.06;5051429;28;20033;-41
2023/01/19 10:22:59;;;;;;;;;;;;;;;7.72;69.89;100446.16;5050336;28;20063;-40
2023/01/19 10:25:25;;;;;;;16.92;2.13;;;;;;;7.47;72.70;100455.09;5051127;28;19971;-39
2023/01/19 10:27:50;;;;;;;15.75;1.50;;;;;;;7.33;72.83;100449.63;5049665;28;20036;-39
2023/01/19 10:30:22;;;;;;;9.68;1.85;;;;;;;7.11;74.65;100443.09;5049511;28;20488;-39
2023/01/19 10:32:49;;;;;;;9.25;1.92;;;;;;;7.30;76.54;100452.63;5051101;28;20100;-42
2023/01/19 10:35:20;;;;;;;19.23;1.85;;;;;;;7.95;72.00;100449.72;5051120;28;20045;-39
2023/01/19 10:37:46;;;;;;;19.67;1.52;;;;;;;8.28;69.73;100454.94;5051696;28;20368;-40
2023/01/19 10:40:11;;;;;;;17.50;1.63;;;;;;;8.59;66.78;100456.78;5051396;28;20036;-41
2023/01/19 10:42:39;;;;;;;24.58;3.13;;;;;;;8.96;65.50;100464.03;5051050;28;20480;-41
2023/01/19 10:45:25;;;;;;;15.52;2.22;;;;;;;8.55;63.85;100465.16;5051635;28;20136;-41
2023/01/19 10:47:51;;;;;;;9.30;1.40;;;;;;;8.37;64.66;100459.22;5049725;28;20055;-40
2023/01/19 10:50:26;;;;;;;39.88;6.80;;;;;;;8.21;65.07;100462.84;5051541;28;20448;-41
2023/01/19 10:52:57;;;;;;;26.08;2.67;;;;;;;8.47;72.29;100465.22;5050897;28;20029;-40
2023/01/19 10:55:33;;;;;;;23.48;2.55;;;;;;;8.62;66.79;100456.44;5050957;28;20392;-41
2023/01/19 10:57:59;;;;;;;16.77;1.83;;;;;;;8.70;68.17;100473.28;5050749;28;20028;-41
2023/01/19 11:00:43;;;;;;;15.77;2.25;;;;;;;8.74;67.93;100458.53;5050532;28;20044;-40
2023/01/19 11:03:28;;;;;;;11.23;2.08;;;;;;;8.48;65.85;100458.88;5049319;28;20033;-41
2023/01/19 11:06:14;;;;;;;21.38;2.05;;;;;;;8.48;66.84;100461.56;5050457;28;20013;-39
2023/01/19 11:08:40;;;;;;;17.85;1.67;;;;;;;8.33;68.17;100463.28;5050356;28;20031;-40
2023/01/19 11:11:11;;;;;;;19.90;3.10;;;;;;;7.90;65.87;100457.47;5050351;28;20025;-39
2023/01/19 11:13:37;;;;;;;20.10;1.90;;;;;;;7.43;67.76;100460.97;5049284;28;20186;-40
2023/01/19 11:16:38;;;;;;;36.65;3.03;;;;;;;7.23;70.47;100465.84;5049053;28;20032;-39
2023/01/19 11:19:04;;;;;;;17.45;2.25;;;;;;;7.54;71.12;100460.59;5026875;28;20334;-40
2023/01/19 11:21:31;;;;;;;13.55;1.50;;;;;;;8.07;67.21;100459.06;5045501;28;20040;-39
2023/01/19 11:23:58;;;;;;;18.42;1.80;;;;;;;8.48;66.82;100460.72;5049071;28;20025;-39
2023/01/19 11:26:40;;;;;;;17.58;1.65;;;;;;;8.85;64.67;100454.56;5050293;28;20100;-40
2023/01/19 11:29:14;;;;;;;7.63;1.30;;;;;;;9.41;61.99;100455.06;5049093;28;20037;-38
2023/01/19 11:31:40;;;;;;;13.35;1.55;;;;;;;9.06;62.34;100463.78;5048701;28;20071;-40
2023/01/19 11:34:30;;;;;;;18.80;1.83;;;;;;;9.76;60.70;100455.34;5050342;28;20025;-40
2023/01/19 11:37:02;;;;;;;17.67;2.30;;;;;;;9.84;61.34;100452.53;5050242;28;20048;-41